createdAt,value
2023-01-31T00:01:43.216Z,85.75
2023-01-31T00:04:12.855Z,85.70
2023-01-31T00:06:44.689Z,86.06
2023-01-31T00:09:15.925Z,86.55
2023-01-31T00:11:42.678Z,86.59
2023-01-31T00:14:18.287Z,86.92
2023-01-31T00:16:44.940Z,87.63
2023-01-31T00:19:11.719Z,87.61
2023-01-31T00:24:05.874Z,87.65
2023-01-31T00:29:06.331Z,87.66
2023-01-31T00:31:35.055Z,88.10
2023-01-31T00:34:02.799Z,88.47
2023-01-31T00:36:32.821Z,88.19
2023-01-31T00:39:01.868Z,88.69
2023-01-31T00:41:30.519Z,88.60
2023-01-31T00:43:57.814Z,88.81
2023-01-31T00:46:25.011Z,89.23
2023-01-31T00:48:52.292Z,89.10
2023-01-31T00:51:20.210Z,89.52
2023-01-31T00:53:47.971Z,89.38
2023-01-31T00:56:19.876Z,87.96
2023-01-31T00:58:46.714Z,89.04
2023-01-31T01:01:21.435Z,88.72
2023-01-31T01:03:49.166Z,88.91
2023-01-31T01:06:19.604Z,88.52
2023-01-31T01:08:46.906Z,89.27
2023-01-31T01:11:30.056Z,89.18
2023-01-31T01:13:58.272Z,89.47
2023-01-31T01:16:28.608Z,89.38
2023-01-31T01:18:55.427Z,89.58
2023-01-31T01:21:26.879Z,89.76
2023-01-31T01:23:55.925Z,90.16
2023-01-31T01:26:25.415Z,90.79
2023-01-31T01:28:56.710Z,89.92
2023-01-31T01:31:30.400Z,90.17
2023-01-31T01:34:00.638Z,89.62
2023-01-31T01:36:27.931Z,89.34
2023-01-31T01:38:55.773Z,89.95
2023-01-31T01:41:25.846Z,89.96
2023-01-31T01:43:58.763Z,89.37
2023-01-31T01:46:39.835Z,88.99
2023-01-31T01:49:28.841Z,90.07
2023-01-31T01:52:01.935Z,90.55
2023-01-31T01:54:39.798Z,90.33
2023-01-31T01:57:12.048Z,90.69
2023-01-31T01:59:40.102Z,90.80
2023-01-31T02:02:10.144Z,91.15
2023-01-31T02:04:39.847Z,91.58
2023-01-31T02:07:11.103Z,91.92
2023-01-31T02:09:41.047Z,91.91
2023-01-31T02:12:12.567Z,91.38
2023-01-31T02:14:40.915Z,91.45
2023-01-31T02:17:15.087Z,91.04
2023-01-31T02:20:01.399Z,90.68
2023-01-31T02:22:31.271Z,89.23
2023-01-31T02:25:10.275Z,89.34
2023-01-31T02:30:22.965Z,88.60
2023-01-31T02:32:58.268Z,89.27
2023-01-31T02:35:39.692Z,89.70
2023-01-31T02:38:31.644Z,88.88
2023-01-31T02:41:34.317Z,89.00
2023-01-31T02:44:33.243Z,88.89
2023-01-31T02:47:25.093Z,88.90
2023-01-31T02:50:14.512Z,89.50
2023-01-31T02:52:53.205Z,89.87
2023-01-31T02:55:39.695Z,90.58
2023-01-31T02:58:09.223Z,90.07
2023-01-31T03:00:39.705Z,90.59
2023-01-31T03:03:22.015Z,90.32
2023-01-31T03:06:27.208Z,89.87
2023-01-31T03:09:26.462Z,91.03
2023-01-31T03:12:10.996Z,90.78
2023-01-31T03:14:40.007Z,91.50
2023-01-31T03:17:33.537Z,92.30
2023-01-31T03:20:19.567Z,91.97
2023-01-31T03:22:46.275Z,91.59
2023-01-31T03:25:20.363Z,91.24
2023-01-31T03:27:56.800Z,91.42
2023-01-31T03:30:39.822Z,92.13
2023-01-31T03:33:19.987Z,92.22
2023-01-31T03:35:56.495Z,91.67
2023-01-31T03:38:31.778Z,90.81
2023-01-31T03:41:09.199Z,91.16
2023-01-31T03:43:42.846Z,90.94
2023-01-31T03:46:28.146Z,90.56
2023-01-31T03:48:59.689Z,90.50
2023-01-31T03:51:37.068Z,90.23
2023-01-31T03:54:14.080Z,90.26
2023-01-31T03:56:46.270Z,89.78
2023-01-31T03:59:17.908Z,89.27
2023-01-31T04:01:52.274Z,89.72
2023-01-31T04:04:29.882Z,88.82
2023-01-31T04:06:57.724Z,89.07
2023-01-31T04:09:24.815Z,89.37
2023-01-31T04:11:52.405Z,89.23
2023-01-31T04:14:22.868Z,88.64
2023-01-31T04:16:57.153Z,88.80
2023-01-31T04:19:24.009Z,88.80
2023-01-31T04:21:50.796Z,88.72
2023-01-31T04:24:20.831Z,88.48
2023-01-31T04:26:48.047Z,88.24
2023-01-31T04:29:14.897Z,89.18
2023-01-31T04:31:44.046Z,88.60
2023-01-31T04:34:10.834Z,88.72
2023-01-31T04:39:04.528Z,89.01
2023-01-31T04:41:32.007Z,88.50
2023-01-31T04:43:58.977Z,88.91
2023-01-31T04:46:25.951Z,87.99
2023-01-31T04:48:58.687Z,88.77
2023-01-31T04:51:25.723Z,89.37
2023-01-31T04:53:52.528Z,89.50
2023-01-31T04:56:20.221Z,90.36
2023-01-31T04:58:48.485Z,90.80
2023-01-31T05:01:15.322Z,91.86
2023-01-31T05:03:42.111Z,91.00
2023-01-31T05:06:09.003Z,91.58
2023-01-31T05:08:36.334Z,91.34
2023-01-31T05:11:05.847Z,91.39
2023-01-31T05:13:33.775Z,91.39
2023-01-31T05:16:00.674Z,91.43
2023-01-31T05:18:27.577Z,92.19
2023-01-31T05:20:54.307Z,92.29
2023-01-31T05:23:21.095Z,91.57
2023-01-31T05:25:50.344Z,92.59
2023-01-31T05:28:17.477Z,92.45
2023-01-31T05:30:44.403Z,92.25
2023-01-31T05:33:11.872Z,92.52
2023-01-31T05:35:39.766Z,92.82
2023-01-31T05:38:10.100Z,92.07
2023-01-31T05:40:36.968Z,91.96
2023-01-31T05:43:12.524Z,91.33
2023-01-31T05:45:43.246Z,91.41
2023-01-31T05:48:10.282Z,90.94
2023-01-31T05:50:37.015Z,91.08
2023-01-31T05:53:06.449Z,90.91
2023-01-31T05:55:33.353Z,90.17
2023-01-31T05:58:01.534Z,90.34
2023-01-31T06:00:28.532Z,90.31
2023-01-31T06:02:59.909Z,89.52
2023-01-31T06:05:36.355Z,89.85
2023-01-31T06:08:03.854Z,89.27
2023-01-31T06:10:30.853Z,89.04
2023-01-31T06:12:57.534Z,89.71
2023-01-31T06:15:27.325Z,89.87
2023-01-31T06:17:57.190Z,88.95
2023-01-31T06:20:27.046Z,89.22
2023-01-31T06:22:53.792Z,88.98
2023-01-31T06:25:20.744Z,89.47
2023-01-31T06:27:47.631Z,89.42
2023-01-31T06:30:20.893Z,88.25
2023-01-31T06:32:47.591Z,88.19
2023-01-31T06:35:14.648Z,87.89
2023-01-31T06:37:41.393Z,87.80
2023-01-31T06:40:11.765Z,87.97
2023-01-31T06:45:05.509Z,88.20
2023-01-31T06:47:32.657Z,88.01
2023-01-31T06:50:00.171Z,87.22
2023-01-31T06:52:26.867Z,88.27
2023-01-31T06:54:54.279Z,88.89
2023-01-31T06:57:21.065Z,89.33
2023-01-31T06:59:47.761Z,89.55
2023-01-31T07:02:14.447Z,89.75
2023-01-31T07:04:41.132Z,90.04
2023-01-31T07:07:07.787Z,90.65
2023-01-31T07:09:34.447Z,90.33
2023-01-31T07:12:02.617Z,90.66
2023-01-31T07:14:30.080Z,90.93
2023-01-31T07:16:57.724Z,91.63
2023-01-31T07:19:24.407Z,90.90
2023-01-31T07:21:51.323Z,91.79
2023-01-31T07:24:18.273Z,89.73
2023-01-31T07:26:47.838Z,90.43
2023-01-31T07:29:14.544Z,90.63
2023-01-31T07:31:41.243Z,91.53
2023-01-31T07:34:07.961Z,92.44
2023-01-31T07:36:34.611Z,92.23
2023-01-31T07:39:02.112Z,91.64
2023-01-31T07:41:28.781Z,91.17
2023-01-31T07:43:55.444Z,91.49
2023-01-31T07:46:22.217Z,91.69
2023-01-31T07:48:49.748Z,91.49
2023-01-31T07:51:16.447Z,91.21
2023-01-31T07:53:44.125Z,91.13
2023-01-31T07:56:17.022Z,90.54
2023-01-31T07:58:46.104Z,89.92
2023-01-31T08:04:20.056Z,88.61
2023-01-31T08:06:49.310Z,88.96
2023-01-31T08:09:16.592Z,88.53
2023-01-31T08:11:43.988Z,88.16
2023-01-31T08:14:10.855Z,88.01
2023-01-31T08:19:05.083Z,87.59
2023-01-31T08:21:31.811Z,87.81
2023-01-31T08:23:58.522Z,86.97
2023-01-31T08:26:25.549Z,87.02
2023-01-31T08:28:54.426Z,86.56
2023-01-31T08:31:24.585Z,85.39
2023-01-31T08:33:53.532Z,86.17
2023-01-31T08:36:29.538Z,85.55
2023-01-31T08:38:56.479Z,85.21
2023-01-31T08:41:25.407Z,84.66
2023-01-31T08:43:56.656Z,83.29
2023-01-31T08:46:25.910Z,83.36
2023-01-31T08:48:52.897Z,81.97
2023-01-31T08:51:19.892Z,82.08
2023-01-31T08:53:46.724Z,82.29
2023-01-31T08:56:14.156Z,82.54
2023-01-31T08:58:43.956Z,82.70
2023-01-31T09:01:13.799Z,81.99
2023-01-31T09:03:43.654Z,82.74
2023-01-31T09:06:21.796Z,83.08
2023-01-31T09:08:48.732Z,82.33
2023-01-31T09:11:19.420Z,82.70
2023-01-31T09:13:47.794Z,82.86
2023-01-31T09:16:15.347Z,82.94
2023-01-31T09:18:42.902Z,82.71
2023-01-31T09:21:11.121Z,83.31
2023-01-31T09:26:06.123Z,83.79
2023-01-31T09:28:33.392Z,84.09
2023-01-31T09:31:17.231Z,83.43
2023-01-31T09:33:44.614Z,82.70
2023-01-31T09:36:14.210Z,83.03
2023-01-31T09:38:41.398Z,82.55
2023-01-31T09:41:28.546Z,82.34
2023-01-31T09:44:24.505Z,81.93
2023-01-31T09:47:05.322Z,81.54
2023-01-31T09:49:39.969Z,81.63
2023-01-31T09:52:06.700Z,81.32
2023-01-31T09:54:40.136Z,81.29
2023-01-31T09:57:12.651Z,81.02
2023-01-31T09:59:46.513Z,80.78
2023-01-31T10:02:22.187Z,80.31
2023-01-31T10:05:16.393Z,80.90
2023-01-31T10:07:48.416Z,81.20
2023-01-31T10:10:39.981Z,80.09
2023-01-31T10:13:15.769Z,80.59
2023-01-31T10:15:52.868Z,81.13
2023-01-31T10:18:37.189Z,81.43
2023-01-31T10:21:11.523Z,81.28
2023-01-31T10:23:39.024Z,81.09
2023-01-31T10:26:27.845Z,80.19
2023-01-31T10:29:14.100Z,77.21
2023-01-31T10:31:45.268Z,76.90
2023-01-31T10:34:25.434Z,75.24
2023-01-31T10:37:12.543Z,73.19
2023-01-31T10:39:39.984Z,76.01
2023-01-31T10:42:15.663Z,74.65
2023-01-31T10:44:55.203Z,74.27
2023-01-31T10:47:29.396Z,75.04
2023-01-31T10:49:56.051Z,76.09
2023-01-31T10:52:39.965Z,76.81
2023-01-31T10:55:19.951Z,76.25
2023-01-31T10:57:50.539Z,76.91
2023-01-31T11:00:23.204Z,77.22
2023-01-31T11:02:50.005Z,77.36
2023-01-31T11:05:20.840Z,76.75
2023-01-31T11:07:48.079Z,76.17
2023-01-31T11:10:27.267Z,76.10
2023-01-31T11:12:56.920Z,76.00
2023-01-31T11:15:29.515Z,75.89
2023-01-31T11:18:01.553Z,75.94
2023-01-31T11:20:31.627Z,76.39
2023-01-31T11:23:03.748Z,76.47
2023-01-31T11:25:33.851Z,76.45
2023-01-31T11:28:16.712Z,76.41
2023-01-31T11:30:49.152Z,76.20
2023-01-31T11:33:40.238Z,76.99
2023-01-31T11:36:13.735Z,76.84
2023-01-31T11:38:40.637Z,76.43
2023-01-31T11:41:28.169Z,77.58
2023-01-31T11:44:13.742Z,77.59
2023-01-31T11:47:08.067Z,78.07
2023-01-31T11:49:40.027Z,78.29
2023-01-31T11:52:14.596Z,78.00
2023-01-31T11:54:48.494Z,77.78
2023-01-31T11:57:24.690Z,78.07
2023-01-31T11:59:55.169Z,77.98
2023-01-31T12:02:40.101Z,78.08
2023-01-31T12:05:18.119Z,77.85
2023-01-31T12:07:51.113Z,78.02
2023-01-31T12:10:32.055Z,77.79
2023-01-31T12:13:17.595Z,77.96
2023-01-31T12:16:03.289Z,78.63
2023-01-31T12:18:40.063Z,77.82
2023-01-31T12:21:15.299Z,78.18
2023-01-31T12:23:50.743Z,78.38
2023-01-31T12:26:40.025Z,78.48
2023-01-31T12:29:27.356Z,77.99
2023-01-31T12:32:14.109Z,78.22
2023-01-31T12:35:06.832Z,78.27
2023-01-31T12:37:39.116Z,78.17
2023-01-31T12:40:25.298Z,78.49
2023-01-31T12:43:25.390Z,78.10
2023-01-31T12:46:27.604Z,78.11
2023-01-31T12:49:09.337Z,78.73
2023-01-31T12:51:40.246Z,78.32
2023-01-31T12:54:07.075Z,78.34
2023-01-31T12:56:39.991Z,77.43
2023-01-31T12:59:40.045Z,77.81
2023-01-31T13:02:25.774Z,78.02
2023-01-31T13:05:09.872Z,77.39
2023-01-31T13:07:39.998Z,77.78
2023-01-31T13:10:40.166Z,77.08
2023-01-31T13:13:17.319Z,77.35
2023-01-31T13:16:01.257Z,76.88
2023-01-31T13:18:33.977Z,76.67
2023-01-31T13:21:10.277Z,76.75
2023-01-31T13:23:40.104Z,76.47
2023-01-31T13:26:18.767Z,76.30
2023-01-31T13:29:06.385Z,76.34
2023-01-31T13:31:39.185Z,75.78
2023-01-31T13:34:22.542Z,75.40
2023-01-31T13:36:55.461Z,75.45
2023-01-31T13:39:29.860Z,75.85
2023-01-31T13:41:56.860Z,76.03
2023-01-31T13:44:23.545Z,76.02
2023-01-31T13:47:35.470Z,75.32
2023-01-31T13:50:30.738Z,76.06
2023-01-31T13:53:02.485Z,75.86
2023-01-31T13:55:36.705Z,76.22
2023-01-31T13:58:07.746Z,75.83
2023-01-31T14:03:12.462Z,76.13
2023-01-31T14:05:40.183Z,76.25
2023-01-31T14:08:35.973Z,76.31
2023-01-31T14:11:15.719Z,76.09
2023-01-31T14:13:51.168Z,76.25
2023-01-31T14:16:40.288Z,76.21
2023-01-31T14:19:19.251Z,76.51
2023-01-31T14:22:05.540Z,76.73
2023-01-31T14:24:40.160Z,77.29
2023-01-31T14:27:19.907Z,77.61
2023-01-31T14:29:49.177Z,77.47
2023-01-31T14:32:25.781Z,77.93
2023-01-31T14:35:00.280Z,78.55
2023-01-31T14:37:40.197Z,78.71
2023-01-31T14:40:23.630Z,78.83
2023-01-31T14:43:17.844Z,79.10
2023-01-31T14:45:56.467Z,79.26
2023-01-31T14:48:40.054Z,79.14
2023-01-31T14:51:40.233Z,79.65
2023-01-31T14:54:19.070Z,80.70
2023-01-31T14:56:55.041Z,80.60
2023-01-31T14:59:34.193Z,81.04
2023-01-31T15:02:21.692Z,81.00
2023-01-31T15:05:14.623Z,81.79
2023-01-31T15:08:03.131Z,82.50
2023-01-31T15:13:40.144Z,83.04
2023-01-31T15:16:09.236Z,83.88
2023-01-31T15:18:36.812Z,83.65
2023-01-31T15:21:07.849Z,83.86
2023-01-31T15:26:05.111Z,83.95
2023-01-31T15:31:17.140Z,83.92
2023-01-31T15:33:51.334Z,83.72
2023-01-31T15:36:26.627Z,84.33
2023-01-31T15:38:57.201Z,85.09
2023-01-31T15:41:40.199Z,84.51
2023-01-31T15:44:24.830Z,84.96
2023-01-31T15:46:53.749Z,85.68
2023-01-31T15:49:39.120Z,86.06
2023-01-31T15:52:16.951Z,86.83
2023-01-31T15:54:58.168Z,87.83
2023-01-31T15:57:28.425Z,87.68
2023-01-31T15:59:56.492Z,87.81
2023-01-31T16:02:29.755Z,88.14
2023-01-31T16:04:57.310Z,88.25
2023-01-31T16:07:28.747Z,88.69
2023-01-31T16:10:02.231Z,88.18
2023-01-31T16:12:31.937Z,88.50
2023-01-31T16:15:04.669Z,88.52
2023-01-31T16:17:31.486Z,89.12
2023-01-31T16:19:58.501Z,89.02
2023-01-31T16:22:28.914Z,89.77
2023-01-31T16:24:58.203Z,90.52
2023-01-31T16:27:27.737Z,90.76
2023-01-31T16:29:59.509Z,91.33
2023-01-31T16:32:37.582Z,91.93
2023-01-31T16:35:29.510Z,92.76
2023-01-31T16:38:16.645Z,92.67
2023-01-31T16:40:55.915Z,93.39
2023-01-31T16:43:27.893Z,95.01
2023-01-31T16:46:11.731Z,94.93
2023-01-31T16:48:42.142Z,95.74
2023-01-31T16:51:28.344Z,96.45
2023-01-31T16:54:16.807Z,96.71
2023-01-31T16:56:45.251Z,96.19
2023-01-31T16:59:33.625Z,95.97
2023-01-31T17:02:05.762Z,95.23
2023-01-31T17:04:32.753Z,95.75
2023-01-31T17:07:06.092Z,95.58
2023-01-31T17:09:35.930Z,94.28
2023-01-31T17:12:02.704Z,94.23
2023-01-31T17:14:30.174Z,94.02
2023-01-31T17:17:12.631Z,94.28
2023-01-31T17:19:40.973Z,93.95
2023-01-31T17:22:07.754Z,93.21
2023-01-31T17:24:34.494Z,93.41
2023-01-31T17:27:01.300Z,93.04
2023-01-31T17:29:31.721Z,93.53
2023-01-31T17:31:59.206Z,93.88
2023-01-31T17:34:26.623Z,93.49
2023-01-31T17:36:56.993Z,94.62
2023-01-31T17:39:23.732Z,94.80
2023-01-31T17:41:50.557Z,95.85
2023-01-31T17:44:22.223Z,95.68
2023-01-31T17:46:49.447Z,96.55
2023-01-31T17:49:16.557Z,95.90
2023-01-31T17:51:48.137Z,95.51
2023-01-31T17:54:16.443Z,96.16
2023-01-31T17:56:43.604Z,95.77
2023-01-31T17:59:21.686Z,95.82
2023-01-31T18:01:53.289Z,95.26
2023-01-31T18:04:20.056Z,95.61
2023-01-31T18:06:46.845Z,95.18
2023-01-31T18:09:15.907Z,95.12
2023-01-31T18:11:44.184Z,95.47
2023-01-31T18:14:18.324Z,96.24
2023-01-31T18:16:45.118Z,96.55
2023-01-31T18:19:14.805Z,96.66
2023-01-31T18:21:54.453Z,96.76
2023-01-31T18:24:28.016Z,97.14
2023-01-31T18:26:57.080Z,98.29
2023-01-31T18:29:26.477Z,98.20
2023-01-31T18:32:04.992Z,98.10
2023-01-31T18:34:33.513Z,97.32
2023-01-31T18:37:01.674Z,97.01
2023-01-31T18:39:30.695Z,97.63
2023-01-31T18:41:59.635Z,97.27
2023-01-31T18:44:27.992Z,96.89
2023-01-31T18:46:58.009Z,96.62
2023-01-31T18:49:25.543Z,96.73
2023-01-31T18:51:52.716Z,96.44
2023-01-31T18:54:20.000Z,96.85
2023-01-31T18:56:46.736Z,97.15
2023-01-31T18:59:13.688Z,98.77
2023-01-31T19:01:43.544Z,99.66
2023-01-31T19:04:10.764Z,99.28
2023-01-31T19:09:07.018Z,98.18
2023-01-31T19:11:34.138Z,97.87
2023-01-31T19:14:07.068Z,97.24
2023-01-31T19:16:40.287Z,97.77
2023-01-31T19:19:11.939Z,97.14
2023-01-31T19:21:40.376Z,96.69
2023-01-31T19:24:18.494Z,97.03
2023-01-31T19:26:45.572Z,95.77
2023-01-31T19:29:18.712Z,96.12
2023-01-31T19:31:50.045Z,95.05
2023-01-31T19:34:16.740Z,94.57
2023-01-31T19:36:46.777Z,94.04
2023-01-31T19:39:13.916Z,94.32
2023-01-31T19:41:42.749Z,94.05
2023-01-31T19:44:09.734Z,93.73
2023-01-31T19:46:43.292Z,94.09
2023-01-31T19:49:10.152Z,93.38
2023-01-31T19:54:08.366Z,94.92
2023-01-31T19:56:35.101Z,96.49
2023-01-31T19:59:01.933Z,95.86
2023-01-31T20:01:28.911Z,95.31
2023-01-31T20:03:55.702Z,95.74
2023-01-31T20:06:25.948Z,95.46
2023-01-31T20:08:59.169Z,96.71
2023-01-31T20:11:28.956Z,97.74
2023-01-31T20:14:00.489Z,99.34
2023-01-31T20:16:27.382Z,100.00
2023-01-31T20:18:57.579Z,100.00
2023-01-31T20:21:27.899Z,99.89
2023-01-31T20:23:54.537Z,99.19
2023-01-31T20:26:24.915Z,98.57
2023-01-31T20:28:55.404Z,99.18
2023-01-31T20:31:22.851Z,98.83
2023-01-31T20:33:55.067Z,99.70
2023-01-31T20:36:25.309Z,98.62
2023-01-31T20:38:52.835Z,98.45
2023-01-31T20:41:19.682Z,98.46
2023-01-31T20:43:55.094Z,98.26
2023-01-31T20:46:22.048Z,98.08
2023-01-31T20:48:48.827Z,98.25
2023-01-31T20:51:15.923Z,97.25
2023-01-31T20:53:43.014Z,97.71
2023-01-31T20:56:13.859Z,97.39
2023-01-31T20:58:44.269Z,97.09
2023-01-31T21:01:17.136Z,97.07
2023-01-31T21:03:43.887Z,97.03
2023-01-31T21:06:10.981Z,96.12
2023-01-31T21:08:40.430Z,95.94
2023-01-31T21:11:11.221Z,95.87
2023-01-31T21:16:07.348Z,95.47
2023-01-31T21:18:40.575Z,95.42
2023-01-31T21:21:09.479Z,95.18
2023-01-31T21:23:37.989Z,95.33
2023-01-31T21:26:07.458Z,95.20
2023-01-31T21:28:34.340Z,95.21
2023-01-31T21:31:04.340Z,95.09
2023-01-31T21:33:31.785Z,94.92
2023-01-31T21:36:00.879Z,94.61
2023-01-31T21:38:28.930Z,94.34
2023-01-31T21:41:15.661Z,94.20
2023-01-31T21:43:42.684Z,93.99
2023-01-31T21:46:10.567Z,93.91
2023-01-31T21:51:16.445Z,93.56
2023-01-31T21:53:43.927Z,93.70
2023-01-31T21:56:17.097Z,93.75
2023-01-31T21:58:44.780Z,93.64
2023-01-31T22:01:20.569Z,93.62
2023-01-31T22:03:50.422Z,93.50
2023-01-31T22:06:22.646Z,93.28
2023-01-31T22:08:54.337Z,93.57
2023-01-31T22:11:21.984Z,93.15
2023-01-31T22:13:52.670Z,93.69
2023-01-31T22:16:23.963Z,95.04
2023-01-31T22:18:54.617Z,95.84
2023-01-31T22:21:26.912Z,96.78
2023-01-31T22:23:59.616Z,96.16
2023-01-31T22:26:30.978Z,97.56
2023-01-31T22:29:00.745Z,98.37
2023-01-31T22:31:28.658Z,98.34
2023-01-31T22:33:56.899Z,98.46
2023-01-31T22:36:26.578Z,98.83
2023-01-31T22:39:00.910Z,100.00
2023-01-31T22:41:28.083Z,100.00
2023-01-31T22:43:55.205Z,100.00
2023-01-31T22:46:29.528Z,100.00
2023-01-31T22:48:58.570Z,100.00
2023-01-31T22:51:29.255Z,100.00
2023-01-31T22:54:09.078Z,100.00
2023-01-31T22:56:35.980Z,100.00
2023-01-31T22:59:04.744Z,100.00
2023-01-31T23:01:36.935Z,100.00
2023-01-31T23:04:06.468Z,100.00
2023-01-31T23:06:37.134Z,100.00
2023-01-31T23:09:04.365Z,100.00
2023-01-31T23:11:31.134Z,100.00
2023-01-31T23:13:58.593Z,100.00
2023-01-31T23:16:40.272Z,100.00
2023-01-31T23:19:06.956Z,100.00
2023-01-31T23:21:33.670Z,100.00
2023-01-31T23:24:00.405Z,100.00
2023-01-31T23:26:27.061Z,100.00
2023-01-31T23:28:53.847Z,100.00
2023-01-31T23:31:21.532Z,100.00
2023-01-31T23:33:49.300Z,100.00
2023-01-31T23:36:16.048Z,100.00
2023-01-31T23:38:43.687Z,100.00
2023-01-31T23:41:10.344Z,100.00
2023-01-31T23:43:37.299Z,99.54
2023-01-31T23:46:04.081Z,99.90
2023-01-31T23:48:30.891Z,100.00
2023-01-31T23:51:03.038Z,100.00
2023-01-31T23:53:29.973Z,100.00
2023-01-31T23:55:56.657Z,100.00
2023-01-31T23:58:23.319Z,100.00
